Time;durP1;ratioP1;P1;durP2;ratioP2;P2;SDS_P1;SDS_P2;PMS_P1;PMS_P2;Temp;Humidity;BMP_temperature;BMP_pressure;BME280_temperature;BME280_humidity;BME280_pressure;Samples;Min_cycle;Max_cycle;Signal;HPM_P1;HPM_P2
2022/09/26 00:01:49;;;;;;;11.43;10.33;;;12.00;99.90;;;;;;5007416;28;20210;-65
2022/09/26 00:04:34;;;;;;;15.07;11.43;;;11.90;99.90;;;;;;5012028;28;21013;-65
2022/09/26 00:07:00;;;;;;;17.13;12.07;;;11.70;99.90;;;;;;5010594;28;20175;-65
2022/09/26 00:09:27;;;;;;;14.83;10.93;;;11.70;99.90;;;;;;5009744;28;20448;-65
2022/09/26 00:11:52;;;;;;;18.40;10.33;;;11.60;99.90;;;;;;5010838;28;20218;-65
2022/09/26 00:14:21;;;;;;;15.03;10.73;;;11.60;99.90;;;;;;5008059;28;20955;-66
2022/09/26 00:16:47;;;;;;;13.33;11.47;;;11.60;99.90;;;;;;5011351;28;20579;-65
2022/09/26 00:19:13;;;;;;;12.33;10.07;;;11.70;99.90;;;;;;5005716;28;20487;-65
2022/09/26 00:21:38;;;;;;;11.97;10.83;;;11.60;99.90;;;;;;5013302;28;20194;-66
2022/09/26 00:24:04;;;;;;;13.07;11.20;;;11.50;99.90;;;;;;5009173;28;20269;-66
2022/09/26 00:26:33;;;;;;;12.60;10.40;;;11.40;99.90;;;;;;5010142;28;20550;-65
2022/09/26 00:29:00;;;;;;;12.50;10.90;;;11.40;99.90;;;;;;5010150;28;20472;-66
2022/09/26 00:31:30;;;;;;;11.20;10.20;;;11.30;99.90;;;;;;5010280;28;20485;-65
2022/09/26 00:33:56;;;;;;;13.37;10.80;;;11.20;99.90;;;;;;5007691;28;20450;-65
2022/09/26 00:36:22;;;;;;;16.73;11.90;;;11.10;99.90;;;;;;5004802;28;21125;-66
2022/09/26 00:38:47;;;;;;;12.87;11.37;;;11.10;99.90;;;;;;5010165;28;20499;-66
2022/09/26 00:41:13;;;;;;;12.40;11.20;;;11.00;99.90;;;;;;5007385;28;20215;-66
2022/09/26 00:43:45;;;;;;;14.47;12.83;;;10.90;99.90;;;;;;5010265;28;20274;-66
2022/09/26 00:46:39;;;;;;;15.23;10.63;;;10.90;99.90;;;;;;5010443;28;20474;-64
2022/09/26 00:49:25;;;;;;;14.60;11.00;;;10.90;99.90;;;;;;5007028;28;20437;-65
2022/09/26 00:52:14;;;;;;;16.03;11.27;;;10.80;99.90;;;;;;4999716;28;20465;-66
2022/09/26 00:54:44;;;;;;;15.67;11.17;;;10.70;99.90;;;;;;4997824;28;20821;-64
2022/09/26 00:57:14;;;;;;;13.77;10.37;;;10.70;99.90;;;;;;4999391;28;20458;-65
2022/09/26 00:59:48;;;;;;;12.87;11.00;;;10.60;99.90;;;;;;5009710;28;20465;-66
2022/09/26 01:02:15;;;;;;;11.80;10.70;;;10.60;99.90;;;;;;5010311;28;20480;-66
2022/09/26 01:04:42;;;;;;;12.70;11.47;;;10.60;99.90;;;;;;5010343;28;20476;-65
2022/09/26 01:07:15;;;;;;;17.40;12.50;;;10.50;99.90;;;;;;5009912;28;20461;-65
2022/09/26 01:09:41;;;;;;;13.87;10.73;;;10.50;99.90;;;;;;5009345;28;20805;-65
2022/09/26 01:12:07;;;;;;;13.20;10.73;;;10.40;99.90;;;;;;5009235;28;20469;-65
2022/09/26 01:14:34;;;;;;;16.97;11.80;;;10.30;99.90;;;;;;5010713;28;20725;-65
2022/09/26 01:16:59;;;;;;;12.03;10.37;;;10.30;99.90;;;;;;5008984;28;20449;-65
2022/09/26 01:19:58;;;;;;;16.10;11.53;;;10.20;99.90;;;;;;4999745;28;20450;-66
2022/09/26 01:23:08;;;;;;;12.50;11.20;;;10.20;99.90;;;;;;5009251;28;20214;-65
2022/09/26 01:26:04;;;;;;;16.40;11.20;;;10.10;99.90;;;;;;5007626;28;20540;-66
2022/09/26 01:28:54;;;;;;;14.77;10.93;;;10.10;99.90;;;;;;4999404;28;20773;-64
2022/09/26 01:32:47;;;;;;;14.77;10.80;;;10.00;99.90;;;;;;4997765;28;20879;-66
2022/09/26 01:34:49;;;;;;;15.90;12.00;;;10.10;99.90;;;;;;5007524;28;20564;-66
2022/09/26 01:37:30;;;;;;;17.80;12.27;;;10.10;99.90;;;;;;5009957;28;20780;-66
2022/09/26 01:40:34;;;;;;;12.10;10.20;;;10.00;99.90;;;;;;5001841;28;20426;-66
2022/09/26 01:43:11;;;;;;;12.53;9.87;;;9.90;99.90;;;;;;5002044;28;20462;-64
2022/09/26 01:45:39;;;;;;;14.83;11.83;;;9.90;99.90;;;;;;5009050;28;20429;-65
2022/09/26 01:48:18;;;;;;;12.07;10.23;;;9.90;99.90;;;;;;5006471;28;20521;-65
2022/09/26 01:50:55;;;;;;;10.93;9.83;;;9.90;99.90;;;;;;4999834;28;21029;-66
2022/09/26 01:53:32;;;;;;;13.47;10.80;;;9.90;99.90;;;;;;5007259;28;20505;-67
2022/09/26 01:56:04;;;;;;;11.50;10.30;;;9.90;99.90;;;;;;4998332;28;20441;-65
2022/09/26 01:58:53;;;;;;;20.07;11.23;;;9.90;99.90;;;;;;5001378;28;20517;-66
2022/09/26 02:01:22;;;;;;;16.93;10.03;;;9.90;99.90;;;;;;5009189;28;20465;-65
2022/09/26 02:03:52;;;;;;;13.63;9.67;;;9.80;99.90;;;;;;5010219;28;20519;-64
2022/09/26 02:06:36;;;;;;;12.03;10.47;;;9.90;99.90;;;;;;5004140;28;20465;-65
2022/09/26 02:09:23;;;;;;;12.13;10.77;;;9.90;99.90;;;;;;5005544;28;20442;-66
2022/09/26 02:11:51;;;;;;;13.60;12.20;;;9.90;99.90;;;;;;5006871;28;20465;-66
2022/09/26 02:14:33;;;;;;;10.57;9.50;;;9.90;99.90;;;;;;5007091;28;20787;-65
2022/09/26 02:17:10;;;;;;;14.93;10.20;;;9.90;99.90;;;;;;5004178;28;20445;-65
2022/09/26 02:19:44;;;;;;;14.17;10.47;;;10.00;99.90;;;;;;5006791;28;20444;-65
2022/09/26 02:22:10;;;;;;;12.90;9.00;;;9.90;99.90;;;;;;5001892;28;20546;-66
2022/09/26 02:24:36;;;;;;;12.47;10.10;;;9.90;99.90;;;;;;5008389;28;20582;-66
2022/09/26 02:27:01;;;;;;;16.60;10.27;;;10.00;99.90;;;;;;5012915;28;20190;-65
2022/09/26 02:29:27;;;;;;;11.73;10.63;;;10.00;99.90;;;;;;5013310;28;20179;-66
2022/09/26 02:31:58;;;;;;;10.80;9.67;;;10.00;99.90;;;;;;5006240;28;20210;-66
2022/09/26 02:34:24;;;;;;;11.50;10.30;;;10.10;99.90;;;;;;5014855;28;20186;-66
2022/09/26 02:36:52;;;;;;;12.67;9.70;;;10.10;99.90;;;;;;5011236;28;20858;-64
2022/09/26 02:39:17;;;;;;;11.30;10.10;;;10.10;99.90;;;;;;5007200;28;20499;-66
2022/09/26 02:42:08;;;;;;;11.13;10.00;;;10.10;99.90;;;;;;5013851;28;20473;-66
2022/09/26 02:44:45;;;;;;;13.53;9.20;;;10.10;99.90;;;;;;5010390;28;20179;-66
2022/09/26 02:47:11;;;;;;;12.07;9.17;;;10.20;99.90;;;;;;5007255;28;20551;-65
2022/09/26 02:49:51;;;;;;;12.30;10.17;;;10.20;99.90;;;;;;5012439;28;21041;-65
2022/09/26 02:52:27;;;;;;;11.70;10.60;;;10.20;99.90;;;;;;5010578;28;20672;-66
2022/09/26 02:55:10;;;;;;;10.43;9.23;;;10.20;99.90;;;;;;5012489;28;21014;-66
2022/09/26 02:57:51;;;;;;;13.13;9.50;;;10.20;99.90;;;;;;5013524;28;21005;-65
2022/09/26 03:00:22;;;;;;;11.90;10.30;;;10.20;99.90;;;;;;5011218;28;20954;-66
2022/09/26 03:03:22;;;;;;;10.73;9.67;;;10.20;99.90;;;;;;5012927;28;20564;-66
2022/09/26 03:05:50;;;;;;;10.97;9.80;;;10.20;99.90;;;;;;5010579;28;20472;-65
2022/09/26 03:08:28;;;;;;;12.20;10.13;;;10.30;99.90;;;;;;5012553;28;20958;-66
2022/09/26 03:10:57;;;;;;;12.97;11.60;;;10.30;99.90;;;;;;5008706;28;20503;-65
2022/09/26 03:13:25;;;;;;;10.60;9.50;;;10.30;99.90;;;;;;5012283;28;20966;-65
2022/09/26 03:15:54;;;;;;;11.17;10.00;;;10.30;99.90;;;;;;5013394;28;20528;-66
2022/09/26 03:18:27;;;;;;;11.93;10.20;;;10.30;99.90;;;;;;5011672;28;20453;-65
2022/09/26 03:20:53;;;;;;;11.03;9.93;;;10.20;99.90;;;;;;5012217;28;20461;-66
2022/09/26 03:23:24;;;;;;;10.20;8.77;;;10.20;99.90;;;;;;5012459;28;20818;-65
2022/09/26 03:26:23;;;;;;;13.63;10.40;;;10.20;99.90;;;;;;5009520;28;20923;-65
2022/09/26 03:28:50;;;;;;;10.03;9.00;;;10.30;99.90;;;;;;5001445;28;20533;-65
2022/09/26 03:31:19;;;;;;;11.30;10.07;;;10.30;99.90;;;;;;5006331;28;20936;-66
2022/09/26 03:33:46;;;;;;;10.20;9.20;;;10.30;99.90;;;;;;5011186;28;20974;-66
2022/09/26 03:36:11;;;;;;;9.77;8.87;;;10.20;99.90;;;;;;5012304;28;20438;-66
2022/09/26 03:38:37;;;;;;;10.80;8.90;;;10.20;99.90;;;;;;5010168;28;20436;-65
2022/09/26 03:41:03;;;;;;;10.30;9.30;;;10.20;99.90;;;;;;5012081;28;20847;-66
2022/09/26 03:43:30;;;;;;;10.10;9.03;;;10.20;99.90;;;;;;5010548;28;20205;-64
2022/09/26 03:45:55;;;;;;;14.13;9.17;;;10.20;99.90;;;;;;5012615;28;20176;-65
2022/09/26 03:48:21;;;;;;;8.63;7.83;;;10.20;99.90;;;;;;5004058;28;20487;-65
2022/09/26 03:50:46;;;;;;;9.83;8.33;;;10.20;99.90;;;;;;5012737;28;20316;-66
2022/09/26 03:53:12;;;;;;;10.00;8.30;;;10.20;99.90;;;;;;5011989;28;20206;-66
2022/09/26 03:55:38;;;;;;;9.63;8.10;;;10.30;99.90;;;;;;5006503;28;20176;-66
2022/09/26 03:58:04;;;;;;;8.97;8.10;;;10.30;99.90;;;;;;5006711;28;20179;-65
2022/09/26 04:00:29;;;;;;;9.53;7.47;;;10.30;99.90;;;;;;5008095;28;20233;-66
2022/09/26 04:02:56;;;;;;;10.93;7.90;;;10.30;99.90;;;;;;5010003;28;20690;-65
2022/09/26 04:05:22;;;;;;;9.00;7.37;;;10.30;99.90;;;;;;5010426;28;20175;-66
2022/09/26 04:07:47;;;;;;;9.07;7.97;;;10.30;99.90;;;;;;5007224;28;20928;-66
2022/09/26 04:10:13;;;;;;;7.20;6.50;;;10.30;99.90;;;;;;5002614;28;20184;-66
2022/09/26 04:12:39;;;;;;;7.67;6.97;;;10.30;99.90;;;;;;5001500;28;20211;-66
2022/09/26 04:15:06;;;;;;;7.47;6.73;;;10.20;99.90;;;;;;5011124;28;20183;-65
2022/09/26 04:17:31;;;;;;;9.10;6.63;;;10.20;99.90;;;;;;5011091;28;20548;-66
2022/09/26 04:19:57;;;;;;;8.37;7.60;;;10.30;99.90;;;;;;5010812;28;21018;-66
2022/09/26 04:22:24;;;;;;;8.13;7.30;;;10.30;99.90;;;;;;5011876;28;20219;-66
2022/09/26 04:24:50;;;;;;;6.63;5.87;;;10.40;99.90;;;;;;5009179;28;20256;-66
2022/09/26 04:27:16;;;;;;;9.30;7.10;;;10.30;99.90;;;;;;5012067;28;20516;-65
2022/09/26 04:29:43;;;;;;;8.40;7.30;;;10.20;99.90;;;;;;5008310;28;20437;-66
2022/09/26 04:32:08;;;;;;;8.80;7.27;;;10.20;99.90;;;;;;5008887;28;20468;-66
2022/09/26 04:34:34;;;;;;;8.37;7.57;;;10.10;99.90;;;;;;5011915;28;20876;-66
2022/09/26 04:36:59;;;;;;;9.43;7.17;;;10.00;99.90;;;;;;5009032;28;20570;-66
2022/09/26 04:39:25;;;;;;;8.10;7.30;;;10.00;99.90;;;;;;4999698;28;20446;-65
2022/09/26 04:41:52;;;;;;;9.23;8.27;;;10.00;99.90;;;;;;5009413;28;20611;-65
2022/09/26 04:44:17;;;;;;;8.20;7.40;;;9.90;99.90;;;;;;5010911;28;20167;-65
2022/09/26 04:46:43;;;;;;;7.30;6.40;;;9.90;99.90;;;;;;5011869;28;20951;-65
2022/09/26 04:49:10;;;;;;;8.03;7.23;;;9.90;99.90;;;;;;5000603;28;20175;-65
2022/09/26 04:51:36;;;;;;;8.17;7.17;;;9.80;99.90;;;;;;5009960;28;20187;-65
2022/09/26 04:54:01;;;;;;;10.47;7.10;;;9.80;99.90;;;;;;5009353;28;20464;-65
2022/09/26 04:56:28;;;;;;;9.87;7.33;;;9.80;99.90;;;;;;5004614;28;20442;-66
2022/09/26 04:58:55;;;;;;;11.57;8.17;;;9.80;99.90;;;;;;5005502;28;20187;-66
2022/09/26 05:01:22;;;;;;;10.60;8.40;;;9.80;99.90;;;;;;5010885;28;20465;-65
2022/09/26 05:03:48;;;;;;;8.97;8.03;;;9.80;99.90;;;;;;5011264;28;20441;-65
2022/09/26 05:06:16;;;;;;;7.07;6.33;;;9.80;99.90;;;;;;5003744;28;20820;-66
2022/09/26 05:08:45;;;;;;;12.80;6.63;;;9.70;99.90;;;;;;5009732;28;20229;-65
2022/09/26 05:11:12;;;;;;;8.10;7.30;;;9.70;99.90;;;;;;5012437;28;21148;-65
2022/09/26 05:13:38;;;;;;;10.43;7.47;;;9.70;99.90;;;;;;5008072;28;20463;-65
2022/09/26 05:16:05;;;;;;;9.03;7.10;;;9.70;99.90;;;;;;5008142;28;20457;-66
2022/09/26 05:18:31;;;;;;;7.70;6.33;;;9.70;99.90;;;;;;5011442;28;20178;-65
2022/09/26 05:20:57;;;;;;;8.13;7.30;;;9.70;99.90;;;;;;5003558;28;20971;-65
2022/09/26 05:26:19;;;;;;;8.23;7.43;;;9.60;99.90;;;;;;5010339;28;20186;-65
2022/09/26 05:28:47;;;;;;;9.93;7.00;;;9.60;99.90;;;;;;5002389;28;20434;-65
2022/09/26 05:31:13;;;;;;;8.87;7.60;;;9.60;99.90;;;;;;5009461;28;20584;-65
2022/09/26 05:33:39;;;;;;;10.33;6.40;;;9.70;99.90;;;;;;5007991;28;20464;-65
2022/09/26 05:36:07;;;;;;;10.43;8.23;;;9.70;99.90;;;;;;5007739;28;20438;-65
2022/09/26 05:38:33;;;;;;;11.07;9.40;;;9.70;99.90;;;;;;5009360;28;20210;-65
2022/09/26 05:40:59;;;;;;;9.00;8.07;;;9.80;99.90;;;;;;5004648;28;20469;-65
2022/09/26 05:43:29;;;;;;;9.90;6.77;;;9.80;99.90;;;;;;5003516;28;20524;-65
2022/09/26 05:46:14;;;;;;;6.80;6.20;;;9.80;99.90;;;;;;5008841;28;20539;-65
2022/09/26 05:48:39;;;;;;;8.30;6.93;;;9.80;99.90;;;;;;5009640;28;20441;-65
2022/09/26 05:51:11;;;;;;;6.43;5.70;;;9.70;99.90;;;;;;5011210;28;20533;-65
2022/09/26 05:53:42;;;;;;;7.73;6.53;;;9.70;99.90;;;;;;4997704;28;20198;-65
2022/09/26 05:56:09;;;;;;;6.43;5.70;;;9.70;99.90;;;;;;4998962;28;20989;-65
2022/09/26 05:58:36;;;;;;;7.53;6.73;;;9.80;99.90;;;;;;5007784;28;20438;-66
2022/09/26 06:01:13;;;;;;;6.33;5.73;;;9.80;99.90;;;;;;5006289;28;20552;-66
2022/09/26 06:03:44;;;;;;;7.83;7.07;;;9.90;99.90;;;;;;5004076;28;20493;-65
2022/09/26 06:06:12;;;;;;;8.07;7.10;;;10.00;99.90;;;;;;4998844;28;20446;-65
2022/09/26 06:08:38;;;;;;;20.13;8.20;;;10.10;99.90;;;;;;5007744;28;20450;-65
2022/09/26 06:11:06;;;;;;;11.77;9.87;;;10.30;99.90;;;;;;5008847;28;20453;-65
2022/09/26 06:13:33;;;;;;;11.17;7.10;;;10.40;99.90;;;;;;5010010;28;20463;-65
2022/09/26 06:16:05;;;;;;;7.43;6.63;;;10.50;99.90;;;;;;5001864;28;20853;-66
2022/09/26 06:18:32;;;;;;;14.83;13.23;;;10.40;99.90;;;;;;5005369;28;20478;-66
2022/09/26 06:21:03;;;;;;;7.37;5.20;;;10.50;99.90;;;;;;5003086;28;20461;-65
2022/09/26 06:23:30;;;;;;;6.40;5.80;;;10.60;99.90;;;;;;5006924;28;20521;-66
2022/09/26 06:25:57;;;;;;;9.30;5.50;;;10.80;99.90;;;;;;5009887;28;20789;-66
2022/09/26 06:28:25;;;;;;;6.10;5.60;;;10.90;99.90;;;;;;5007042;28;20499;-66
2022/09/26 06:30:51;;;;;;;9.43;5.80;;;10.90;99.90;;;;;;5002754;28;20469;-66
2022/09/26 06:33:16;;;;;;;6.97;5.93;;;10.90;99.90;;;;;;5002925;28;20461;-66
2022/09/26 06:35:42;;;;;;;7.83;4.97;;;10.90;99.90;;;;;;5003549;28;20533;-65
2022/09/26 06:38:07;;;;;;;6.23;5.63;;;10.90;99.90;;;;;;5000678;28;20551;-65
2022/09/26 06:40:33;;;;;;;6.90;6.00;;;10.90;99.90;;;;;;5004206;28;20772;-65
2022/09/26 06:42:59;;;;;;;8.83;6.17;;;10.80;99.90;;;;;;5007890;28;20202;-66
2022/09/26 06:45:27;;;;;;;7.27;5.77;;;10.80;99.90;;;;;;5006912;28;20531;-66
2022/09/26 06:47:53;;;;;;;9.10;6.43;;;10.80;99.90;;;;;;5006585;28;20445;-66
2022/09/26 06:50:20;;;;;;;7.70;6.17;;;10.90;99.90;;;;;;5009144;28;20442;-66
2022/09/26 06:52:46;;;;;;;6.50;4.93;;;10.90;99.90;;;;;;5003671;28;20224;-66
2022/09/26 06:55:11;;;;;;;7.77;5.00;;;11.00;99.90;;;;;;4999380;28;20438;-67
2022/09/26 06:57:39;;;;;;;6.80;4.90;;;11.10;99.90;;;;;;5005706;28;20194;-65
2022/09/26 07:00:12;;;;;;;5.13;4.53;;;11.30;99.90;;;;;;4995669;28;20184;-65
2022/09/26 07:02:48;;;;;;;5.47;4.97;;;11.30;99.90;;;;;;4978189;28;20541;-65
2022/09/26 07:05:14;;;;;;;4.93;4.43;;;11.30;99.90;;;;;;4974014;28;20438;-66
2022/09/26 07:07:45;;;;;;;8.37;4.83;;;11.50;99.90;;;;;;4993986;28;20833;-65
2022/09/26 07:10:11;;;;;;;4.57;4.17;;;11.80;99.90;;;;;;4995300;28;20318;-66
2022/09/26 07:12:39;;;;;;;4.70;4.40;;;11.90;99.90;;;;;;5006425;28;20449;-65
2022/09/26 07:15:05;;;;;;;4.80;4.30;;;12.10;99.90;;;;;;5004358;28;20806;-66
2022/09/26 07:17:30;;;;;;;3.70;3.40;;;12.40;99.90;;;;;;5007745;28;20436;-66
2022/09/26 07:19:56;;;;;;;5.97;4.13;;;12.50;99.90;;;;;;5011593;28;20429;-66
2022/09/26 07:22:21;;;;;;;4.13;3.73;;;12.60;99.90;;;;;;4991481;28;20302;-66
2022/09/26 07:24:49;;;;;;;4.47;3.87;;;12.60;99.90;;;;;;4995529;28;20548;-66
2022/09/26 07:27:15;;;;;;;4.57;4.17;;;12.60;99.90;;;;;;4994850;28;20263;-66
2022/09/26 07:29:40;;;;;;;4.10;3.70;;;12.70;99.90;;;;;;5011206;28;20430;-66
2022/09/26 07:32:05;;;;;;;4.00;3.70;;;12.70;99.90;;;;;;5011262;28;20453;-66
2022/09/26 07:34:31;;;;;;;4.00;3.70;;;12.60;99.90;;;;;;5013662;28;20623;-66
2022/09/26 07:36:58;;;;;;;5.23;3.77;;;12.60;99.90;;;;;;5014687;28;20183;-65
2022/09/26 07:39:25;;;;;;;4.80;3.70;;;12.70;99.90;;;;;;5013948;28;20171;-66
2022/09/26 07:41:51;;;;;;;5.20;4.53;;;12.70;99.90;;;;;;5001790;28;20486;-65
2022/09/26 07:44:16;;;;;;;6.27;3.97;;;12.50;99.90;;;;;;4995191;28;20790;-65
2022/09/26 07:52:10;;;;;;;4.67;4.30;;;12.40;99.90;;;;;;4991523;28;20528;-65
2022/09/26 07:54:35;;;;;;;4.20;3.80;;;12.40;99.90;;;;;;5003086;28;20430;-65
2022/09/26 07:57:03;;;;;;;4.93;4.43;;;12.40;99.90;;;;;;4994782;28;20219;-65
2022/09/26 07:59:34;;;;;;;7.67;4.00;;;12.40;99.90;;;;;;4992803;28;20599;-65
2022/09/26 08:02:01;;;;;;;3.70;3.50;;;12.40;99.90;;;;;;4996251;28;20469;-66
2022/09/26 08:04:26;;;;;;;3.50;3.20;;;12.50;99.90;;;;;;5004433;28;20458;-65
2022/09/26 08:06:54;;;;;;;4.33;4.03;;;12.50;99.90;;;;;;4992685;28;20465;-66
2022/09/26 08:09:19;;;;;;;4.50;4.10;;;12.60;99.90;;;;;;4993555;28;20785;-65
2022/09/26 08:11:45;;;;;;;4.87;4.30;;;12.80;99.90;;;;;;4998788;28;20458;-66
2022/09/26 08:14:11;;;;;;;3.90;3.60;;;12.90;99.90;;;;;;4993376;28;20172;-66
2022/09/26 08:16:40;;;;;;;8.03;4.33;;;13.00;99.90;;;;;;4994297;28;20234;-66
2022/09/26 08:19:07;;;;;;;4.90;4.50;;;13.10;99.90;;;;;;4993778;28;20180;-66
2022/09/26 08:21:33;;;;;;;5.10;4.43;;;13.10;99.90;;;;;;4998950;28;20473;-65
2022/09/26 08:23:59;;;;;;;4.53;4.13;;;13.20;99.90;;;;;;5011917;28;20426;-66
2022/09/26 08:26:24;;;;;;;6.20;3.80;;;13.50;99.90;;;;;;5013812;28;20493;-66
2022/09/26 08:28:50;;;;;;;5.03;3.70;;;13.60;99.90;;;;;;4997572;28;20551;-66
2022/09/26 08:31:16;;;;;;;4.80;4.40;;;13.70;99.90;;;;;;5007630;28;20170;-66
2022/09/26 08:33:43;;;;;;;4.40;4.00;;;13.80;99.90;;;;;;4993812;28;20202;-66
2022/09/26 08:36:10;;;;;;;5.10;4.60;;;14.00;99.90;;;;;;5013758;28;20460;-66
2022/09/26 08:38:37;;;;;;;4.47;3.97;;;14.20;99.90;;;;;;5011951;28;20521;-66
2022/09/26 08:41:23;;;;;;;5.73;3.90;;;14.20;99.90;;;;;;5004437;28;20496;-66
2022/09/26 08:44:20;;;;;;;4.73;4.33;;;14.40;99.90;;;;;;5011296;28;20431;-66
2022/09/26 08:47:00;;;;;;;6.10;4.10;;;14.70;99.90;;;;;;5006325;28;20425;-66
2022/09/26 08:49:49;;;;;;;6.00;5.00;;;15.10;99.90;;;;;;5012937;28;20401;-66
2022/09/26 08:52:36;;;;;;;7.83;3.50;;;15.40;99.90;;;;;;5002586;28;20500;-66
2022/09/26 08:55:25;;;;;;;7.43;3.83;;;15.80;99.90;;;;;;5013569;28;20417;-66
2022/09/26 08:57:59;;;;;;;11.20;5.40;;;15.90;99.90;;;;;;4992945;28;20434;-66
2022/09/26 09:00:27;;;;;;;5.37;3.63;;;16.30;99.90;;;;;;4992772;28;20498;-66
2022/09/26 09:03:24;;;;;;;4.40;4.00;;;17.00;99.90;;;;;;4994341;28;20463;-65
2022/09/26 09:06:04;;;;;;;3.77;3.47;;;17.60;99.90;;;;;;5003303;28;20426;-64
2022/09/26 09:08:37;;;;;;;7.23;3.80;;;18.20;99.90;;;;;;5003081;28;20453;-64
2022/09/26 09:11:36;;;;;;;6.33;3.60;;;18.30;99.90;;;;;;5009663;28;20864;-64
2022/09/26 09:14:15;;;;;;;3.83;2.97;;;18.70;99.90;;;;;;4994702;28;20857;-64
2022/09/26 09:17:00;;;;;;;4.03;3.20;;;19.00;99.90;;;;;;4996671;28;20935;-65
2022/09/26 09:19:47;;;;;;;4.37;3.80;;;19.00;99.90;;;;;;5011294;28;20417;-65
2022/09/26 09:22:34;;;;;;;4.10;3.37;;;19.90;99.90;;;;;;5001108;28;20474;-65
2022/09/26 09:25:03;;;;;;;3.87;3.57;;;20.20;99.90;;;;;;4992252;28;20763;-65
2022/09/26 09:27:32;;;;;;;3.67;3.37;;;21.00;99.90;;;;;;5005619;28;20791;-65
2022/09/26 09:30:00;;;;;;;3.53;3.23;;;21.20;99.90;;;;;;5011775;28;20826;-65
2022/09/26 09:32:40;;;;;;;4.63;3.70;;;20.90;99.90;;;;;;4998498;28;20962;-65
2022/09/26 09:35:13;;;;;;;3.73;3.30;;;21.00;99.90;;;;;;4992706;28;20484;-65
2022/09/26 09:37:45;;;;;;;3.73;3.10;;;21.50;99.90;;;;;;5000899;28;20419;-65
2022/09/26 09:40:33;;;;;;;4.07;3.20;;;22.10;99.90;;;;;;4991177;28;21098;-65
2022/09/26 09:43:04;;;;;;;3.67;2.70;;;22.80;97.60;;;;;;4996649;28;20565;-65
2022/09/26 09:45:46;;;;;;;3.20;2.77;;;23.10;94.60;;;;;;4992457;28;20762;-65
2022/09/26 09:48:12;;;;;;;2.97;2.73;;;22.20;93.90;;;;;;4991439;28;20473;-66
2022/09/26 09:51:15;;;;;;;3.10;2.80;;;22.40;94.00;;;;;;4992243;28;20427;-67
2022/09/26 09:54:22;;;;;;;3.10;2.77;;;22.50;94.10;;;;;;4993248;28;20433;-65
2022/09/26 09:56:55;;;;;;;2.90;2.63;;;22.50;93.30;;;;;;5001435;28;20424;-65
2022/09/26 09:59:57;;;;;;;2.67;2.20;;;22.90;92.10;;;;;;5010268;28;20432;-65
2022/09/26 10:02:42;;;;;;;2.33;2.13;;;22.70;92.00;;;;;;4999678;28;20489;-64
2022/09/26 10:05:33;;;;;;;2.27;1.93;;;22.00;91.10;;;;;;5012202;28;20414;-65
2022/09/26 10:07:59;;;;;;;2.47;2.00;;;21.90;91.00;;;;;;5007149;28;20958;-63
2022/09/26 10:10:49;;;;;;;2.30;2.17;;;20.70;91.50;;;;;;5011343;28;21109;-64
2022/09/26 10:13:16;;;;;;;2.70;2.10;;;19.40;94.40;;;;;;4992957;28;20526;-64
2022/09/26 10:15:56;;;;;;;3.13;2.87;;;18.60;98.80;;;;;;4992497;28;20422;-63
2022/09/26 10:18:22;;;;;;;2.73;2.53;;;18.20;99.90;;;;;;4991873;28;20959;-65
2022/09/26 10:20:52;;;;;;;3.53;2.67;;;17.80;99.90;;;;;;5002324;28;20503;-65
2022/09/26 10:23:18;;;;;;;2.87;2.50;;;17.50;99.90;;;;;;4992414;28;20187;-65
2022/09/26 10:25:48;;;;;;;2.93;2.37;;;18.10;99.90;;;;;;4998907;28;20417;-66
2022/09/26 10:28:43;;;;;;;4.00;2.60;;;20.30;97.90;;;;;;5010829;28;20270;-66
2022/09/26 10:31:20;;;;;;;2.30;2.07;;;21.50;94.30;;;;;;5004752;28;20426;-67
2022/09/26 10:33:48;;;;;;;3.53;2.10;;;22.10;91.80;;;;;;4998760;28;20434;-67
2022/09/26 10:36:19;;;;;;;2.63;2.27;;;22.10;86.70;;;;;;5001350;28;20457;-66
2022/09/26 10:41:47;;;;;;;4.37;2.10;;;22.40;86.20;;;;;;5003924;28;20537;-67
2022/09/26 10:44:26;;;;;;;2.80;2.50;;;21.60;89.00;;;;;;4995627;28;20414;-66
2022/09/26 10:46:55;;;;;;;2.40;2.00;;;21.10;90.90;;;;;;5001901;28;20485;-66
2022/09/26 10:49:26;;;;;;;2.90;2.20;;;20.40;90.80;;;;;;5009916;28;20432;-67
2022/09/26 10:52:04;;;;;;;2.70;2.50;;;19.30;94.80;;;;;;4992552;28;20454;-67
2022/09/26 10:54:41;;;;;;;3.27;2.50;;;18.70;96.70;;;;;;4995405;28;20430;-65
2022/09/26 10:57:17;;;;;;;2.60;2.40;;;18.20;99.50;;;;;;5010064;28;20425;-66
2022/09/26 10:59:44;;;;;;;2.80;2.60;;;18.20;99.90;;;;;;5014764;28;20924;-67
2022/09/26 11:02:20;;;;;;;3.83;2.13;;;19.20;95.50;;;;;;5004938;28;20553;-67
2022/09/26 11:07:36;;;;;;;4.53;4.13;;;19.30;94.20;;;;;;4995859;28;20426;-66
2022/09/26 11:10:08;;;;;;;3.33;2.00;;;19.30;94.30;;;;;;4999165;28;20834;-66
2022/09/26 11:12:38;;;;;;;2.30;1.73;;;19.40;94.00;;;;;;5011583;28;20816;-66
2022/09/26 11:15:07;;;;;;;1.97;1.50;;;19.50;92.70;;;;;;5010793;28;20434;-66
2022/09/26 11:17:46;;;;;;;2.20;1.90;;;21.20;88.60;;;;;;4995398;28;21123;-67
2022/09/26 11:20:46;;;;;;;1.50;1.40;;;21.90;85.40;;;;;;4994787;28;20828;-67
2022/09/26 11:23:37;;;;;;;3.70;1.97;;;22.60;84.20;;;;;;4996722;28;20440;-65
2022/09/26 11:26:32;;;;;;;3.53;1.53;;;23.80;76.00;;;;;;4996337;28;20415;-64
2022/09/26 11:29:17;;;;;;;1.93;1.60;;;23.70;74.10;;;;;;4997875;28;20427;-64
2022/09/26 11:31:43;;;;;;;2.03;1.60;;;22.00;74.80;;;;;;4992169;28;20445;-64
2022/09/26 11:34:25;;;;;;;1.63;1.53;;;22.10;76.60;;;;;;5006622;28;20932;-67
2022/09/26 11:37:29;;;;;;;1.90;1.70;;;23.30;74.90;;;;;;4995225;28;20556;-64
2022/09/26 11:40:08;;;;;;;2.27;1.60;;;24.50;71.80;;;;;;4993767;28;20414;-65
2022/09/26 11:43:04;;;;;;;1.60;1.50;;;24.50;71.50;;;;;;4991530;28;20902;-64
2022/09/26 11:46:03;;;;;;;4.87;2.10;;;23.50;72.00;;;;;;4994581;28;20415;-64
2022/09/26 11:48:46;;;;;;;2.57;1.80;;;23.80;74.10;;;;;;5014130;28;20790;-64
2022/09/26 11:51:18;;;;;;;5.40;3.10;;;23.90;73.10;;;;;;5014631;28;20436;-64
2022/09/26 11:54:11;;;;;;;1.83;1.63;;;25.50;71.40;;;;;;5000774;28;20445;-65
2022/09/26 11:57:15;;;;;;;2.07;1.87;;;24.50;67.00;;;;;;5014416;28;20472;-64
2022/09/26 12:00:00;;;;;;;1.97;1.77;;;21.90;73.10;;;;;;4976142;28;20496;-64
2022/09/26 12:03:12;;;;;;;2.27;1.80;;;19.80;89.50;;;;;;5003291;28;20987;-64
2022/09/26 12:06:08;;;;;;;2.20;2.00;;;18.40;99.90;;;;;;4994529;28;20426;-64
2022/09/26 12:09:23;;;;;;;2.27;1.77;;;16.70;99.90;;;;;;4993225;28;20425;-66
2022/09/26 12:12:23;;;;;;;3.20;3.00;;;16.00;99.90;;;;;;4991447;28;20454;-66
2022/09/26 12:15:15;;;;;;;2.47;2.30;;;16.00;99.90;;;;;;4994424;28;20427;-66
2022/09/26 12:18:12;;;;;;;2.23;1.87;;;16.70;99.90;;;;;;5013407;28;20430;-66
2022/09/26 12:20:55;;;;;;;1.80;1.70;;;18.80;99.90;;;;;;5011377;28;20513;-66
2022/09/26 12:23:31;;;;;;;5.60;2.97;;;21.20;99.90;;;;;;4992597;28;20968;-67
2022/09/26 12:26:00;;;;;;;2.90;2.10;;;23.70;99.90;;;;;;4994145;28;20413;-65
2022/09/26 12:28:49;;;;;;;2.50;1.80;;;26.50;91.70;;;;;;4991402;28;20423;-66
2022/09/26 12:31:40;;;;;;;1.70;1.60;;;27.40;82.60;;;;;;4994108;28;20501;-65
2022/09/26 12:34:36;;;;;;;1.63;1.17;;;26.40;77.30;;;;;;4992722;28;20415;-64
2022/09/26 12:37:23;;;;;;;3.03;1.70;;;24.30;80.80;;;;;;4993718;28;20433;-65
2022/09/26 12:40:05;;;;;;;2.17;1.50;;;22.50;85.90;;;;;;4993827;28;20414;-64
2022/09/26 12:43:06;;;;;;;1.90;1.47;;;20.80;93.20;;;;;;5004077;28;20465;-64
2022/09/26 12:46:02;;;;;;;2.00;1.80;;;19.10;95.20;;;;;;5013257;28;20421;-63
2022/09/26 12:48:57;;;;;;;2.50;1.90;;;18.30;98.00;;;;;;5011549;28;20417;-66
2022/09/26 12:51:43;;;;;;;2.00;1.90;;;18.20;99.20;;;;;;5006760;28;20882;-65
2022/09/26 12:54:37;;;;;;;2.70;1.60;;;17.90;99.10;;;;;;5003878;28;20430;-66
2022/09/26 12:57:31;;;;;;;1.73;1.40;;;17.60;98.20;;;;;;4993649;28;20838;-66
2022/09/26 13:00:20;;;;;;;2.10;1.73;;;17.50;99.90;;;;;;4991872;28;20423;-66
2022/09/26 13:03:15;;;;;;;4.70;1.90;;;17.20;99.90;;;;;;4994102;28;20998;-69
2022/09/26 13:05:59;;;;;;;2.40;1.93;;;16.80;99.90;;;;;;4998301;28;20484;-66
2022/09/26 13:08:36;;;;;;;2.23;1.30;;;16.60;99.90;;;;;;5011663;28;20430;-67
2022/09/26 13:11:14;;;;;;;2.00;1.77;;;16.30;99.90;;;;;;5013154;28;20511;-66
2022/09/26 13:14:14;;;;;;;2.73;1.60;;;16.00;99.90;;;;;;4996563;28;20545;-65
2022/09/26 13:17:12;;;;;;;1.63;1.40;;;15.80;99.90;;;;;;5011667;28;20426;-66
2022/09/26 13:20:02;;;;;;;2.40;1.10;;;15.60;99.90;;;;;;5010921;28;20440;-66
2022/09/26 13:22:52;;;;;;;1.37;1.27;;;15.40;99.90;;;;;;5009969;28;20464;-66
2022/09/26 13:25:25;;;;;;;2.40;1.30;;;15.50;99.90;;;;;;5002121;28;20418;-68
2022/09/26 13:28:05;;;;;;;1.40;1.10;;;15.50;99.90;;;;;;5012826;28;20418;-68
2022/09/26 13:30:35;;;;;;;1.20;0.90;;;15.70;99.90;;;;;;4997933;28;20426;-68
2022/09/26 13:33:10;;;;;;;1.60;1.10;;;16.50;99.90;;;;;;4989427;28;20546;-68
2022/09/26 13:35:40;;;;;;;1.60;1.50;;;16.90;99.90;;;;;;4992220;28;20426;-67